createdAt,value
2018-07-12T00:01:58.403Z,20.10
2018-07-12T00:04:25.187Z,20.10
2018-07-12T00:06:52.605Z,20.10
2018-07-12T00:09:19.399Z,20.00
2018-07-12T00:11:46.145Z,20.00
2018-07-12T00:14:12.888Z,20.10
2018-07-12T00:16:39.748Z,20.00
2018-07-12T00:19:06.484Z,20.00
2018-07-12T00:21:33.242Z,20.00
2018-07-12T00:26:27.499Z,20.00
2018-07-12T00:28:54.263Z,20.00
2018-07-12T00:31:21.023Z,20.00
2018-07-12T00:33:47.824Z,20.10
2018-07-12T00:36:14.595Z,20.10
2018-07-12T00:38:41.347Z,20.10
2018-07-12T00:41:08.115Z,20.10
2018-07-12T00:43:34.854Z,20.10
2018-07-12T00:46:01.638Z,20.20
2018-07-12T00:48:28.403Z,20.20
2018-07-12T00:50:55.185Z,20.10
2018-07-12T00:53:21.976Z,20.20
2018-07-12T00:55:48.724Z,20.20
2018-07-12T00:58:15.508Z,20.20
2018-07-12T01:00:42.272Z,20.20
2018-07-12T01:03:09.026Z,20.20
2018-07-12T01:05:36.209Z,20.20
2018-07-12T01:08:02.983Z,20.20
2018-07-12T01:10:29.749Z,20.20
2018-07-12T01:12:56.496Z,20.20
2018-07-12T01:15:23.243Z,20.30
2018-07-12T01:17:49.976Z,20.20
2018-07-12T01:20:16.743Z,20.20
2018-07-12T01:22:43.506Z,20.20
2018-07-12T01:25:10.268Z,20.20
2018-07-12T01:27:37.023Z,20.30
2018-07-12T01:30:03.789Z,20.30
2018-07-12T01:32:30.546Z,20.30
2018-07-12T01:34:57.324Z,20.30
2018-07-12T01:37:24.076Z,20.20
2018-07-12T01:39:50.834Z,20.20
2018-07-12T01:42:17.670Z,20.10
2018-07-12T01:44:44.436Z,20.10
2018-07-12T01:47:11.201Z,20.10
2018-07-12T01:49:37.968Z,20.10
2018-07-12T01:52:04.751Z,20.10
2018-07-12T01:54:31.495Z,20.10
2018-07-12T01:56:58.243Z,20.10
2018-07-12T01:59:25.006Z,20.10
2018-07-12T02:01:51.756Z,20.20
2018-07-12T02:04:18.495Z,20.10
2018-07-12T02:06:45.255Z,20.10
2018-07-12T02:09:12.022Z,20.10
2018-07-12T02:11:38.778Z,20.10
2018-07-12T02:14:05.553Z,20.20
2018-07-12T02:16:32.305Z,20.20
2018-07-12T02:18:59.053Z,20.20
2018-07-12T02:21:25.788Z,20.20
2018-07-12T02:23:52.550Z,20.20
2018-07-12T02:26:19.313Z,20.20
2018-07-12T02:28:46.068Z,20.20
2018-07-12T02:31:12.819Z,20.20
2018-07-12T02:33:39.595Z,20.10
2018-07-12T02:36:06.353Z,20.10
2018-07-12T02:38:33.128Z,20.20
2018-07-12T02:40:59.878Z,20.10
2018-07-12T02:43:26.630Z,20.10
2018-07-12T02:45:53.408Z,20.10
2018-07-12T02:48:20.181Z,20.10
2018-07-12T02:50:46.950Z,20.10
2018-07-12T02:53:13.731Z,20.10
2018-07-12T02:55:40.481Z,20.00
2018-07-12T02:58:07.236Z,20.00
2018-07-12T03:00:34.013Z,20.00
2018-07-12T03:03:00.771Z,20.00
2018-07-12T03:05:27.513Z,20.00
2018-07-12T03:07:54.268Z,20.00
2018-07-12T03:10:21.016Z,20.00
2018-07-12T03:12:47.756Z,20.00
2018-07-12T03:15:14.536Z,20.00
2018-07-12T03:17:41.297Z,20.00
2018-07-12T03:20:08.049Z,20.00
2018-07-12T03:22:34.818Z,20.00
2018-07-12T03:25:01.597Z,19.90
2018-07-12T03:27:28.368Z,19.90
2018-07-12T03:29:55.126Z,19.90
2018-07-12T03:32:21.886Z,19.80
2018-07-12T03:34:48.634Z,19.80
2018-07-12T03:37:15.399Z,19.80
2018-07-12T03:39:42.171Z,19.80
2018-07-12T03:42:08.936Z,19.90
2018-07-12T03:44:35.723Z,19.90
2018-07-12T03:47:02.522Z,19.80
2018-07-12T03:49:29.263Z,19.80
2018-07-12T03:51:56.033Z,19.80
2018-07-12T03:54:22.829Z,20.00
2018-07-12T03:56:49.590Z,20.10
2018-07-12T03:59:16.358Z,20.10
2018-07-12T04:01:43.105Z,20.10
2018-07-12T04:04:09.897Z,20.00
2018-07-12T04:06:36.643Z,19.90
2018-07-12T04:09:04.295Z,19.80
2018-07-12T04:11:31.063Z,19.80
2018-07-12T04:13:57.848Z,19.80
2018-07-12T04:16:24.613Z,19.60
2018-07-12T04:18:51.375Z,19.40
2018-07-12T04:23:45.359Z,19.30
2018-07-12T04:26:12.136Z,19.20
2018-07-12T04:28:38.943Z,19.30
2018-07-12T04:31:05.759Z,19.20
2018-07-12T04:33:32.536Z,19.30
2018-07-12T04:35:59.304Z,19.50
2018-07-12T04:38:26.098Z,19.60
2018-07-12T04:40:52.998Z,19.70
2018-07-12T04:43:19.747Z,19.90
2018-07-12T04:45:46.506Z,20.10
2018-07-12T04:48:13.263Z,20.30
2018-07-12T04:50:40.020Z,20.30
2018-07-12T04:53:06.798Z,20.40
2018-07-12T04:55:33.546Z,20.30
2018-07-12T04:58:00.289Z,20.30
2018-07-12T05:00:27.050Z,20.40
2018-07-12T05:02:53.811Z,20.50
2018-07-12T05:05:20.588Z,20.80
2018-07-12T05:07:47.338Z,20.80
2018-07-12T05:10:14.086Z,20.90
2018-07-12T05:12:40.841Z,21.30
2018-07-12T05:15:07.587Z,21.60
2018-07-12T05:17:34.395Z,21.90
2018-07-12T05:20:01.171Z,22.30
2018-07-12T05:22:27.955Z,22.60
2018-07-12T05:24:54.733Z,22.70
2018-07-12T05:27:21.523Z,22.80
2018-07-12T05:29:48.290Z,23.00
2018-07-12T05:32:15.978Z,23.20
2018-07-12T05:34:42.744Z,23.10
2018-07-12T05:37:12.091Z,22.90
2018-07-12T05:39:40.677Z,23.10
2018-07-12T05:42:09.268Z,23.00
2018-07-12T05:44:37.795Z,23.40
2018-07-12T05:47:06.388Z,23.60
2018-07-12T05:49:34.903Z,23.90
2018-07-12T05:52:03.490Z,23.90
2018-07-12T05:54:32.071Z,24.00
2018-07-12T05:57:00.678Z,24.20
2018-07-12T05:59:29.175Z,24.20
2018-07-12T06:02:14.788Z,24.20
2018-07-12T06:04:43.358Z,24.00
2018-07-12T06:07:11.885Z,23.80
2018-07-12T06:09:40.684Z,23.40
2018-07-12T06:12:09.379Z,22.90
2018-07-12T06:14:38.024Z,22.60
2018-07-12T06:17:06.604Z,22.60
2018-07-12T06:19:35.187Z,22.80
2018-07-12T06:22:03.752Z,22.90
2018-07-12T06:24:32.335Z,23.00
2018-07-12T06:27:00.929Z,23.10
2018-07-12T06:29:29.478Z,23.50
2018-07-12T06:31:58.024Z,23.80
2018-07-12T06:34:26.711Z,24.10
2018-07-12T06:36:55.355Z,24.00
2018-07-12T06:39:24.068Z,24.20
2018-07-12T06:41:52.628Z,24.20
2018-07-12T06:44:21.172Z,24.10
2018-07-12T06:46:49.728Z,24.00
2018-07-12T06:49:18.275Z,23.70
2018-07-12T06:51:46.813Z,23.70
2018-07-12T06:54:15.412Z,23.80
2018-07-12T06:56:44.023Z,23.80
2018-07-12T06:59:12.634Z,23.80
2018-07-12T07:01:41.321Z,23.70
2018-07-12T07:04:09.948Z,23.70
2018-07-12T07:06:38.628Z,23.50
2018-07-12T07:09:09.276Z,23.30
2018-07-12T07:11:37.801Z,23.50
2018-07-12T07:14:06.473Z,23.50
2018-07-12T07:16:35.574Z,23.80
2018-07-12T07:19:04.976Z,24.30
2018-07-12T07:21:33.516Z,24.60
2018-07-12T07:24:02.110Z,24.70
2018-07-12T07:26:30.640Z,25.00
2018-07-12T07:28:59.184Z,25.10
2018-07-12T07:31:27.792Z,24.90
2018-07-12T07:33:56.483Z,25.00
2018-07-12T07:36:25.057Z,25.40
2018-07-12T07:38:53.604Z,25.70
2018-07-12T07:41:22.493Z,26.20
2018-07-12T07:43:51.031Z,26.90
2018-07-12T07:46:19.704Z,27.10
2018-07-12T07:48:48.336Z,26.90
2018-07-12T07:51:16.951Z,26.60
2018-07-12T07:58:42.389Z,26.40
2018-07-12T08:03:39.554Z,26.40
2018-07-12T08:06:08.126Z,26.40
2018-07-12T08:08:36.793Z,26.50
2018-07-12T08:11:05.504Z,26.30
2018-07-12T08:16:02.490Z,26.60
2018-07-12T08:18:31.081Z,27.30
2018-07-12T08:20:59.842Z,27.50
2018-07-12T08:23:28.598Z,26.70
2018-07-12T08:25:57.229Z,26.60
2018-07-12T08:28:27.569Z,27.00
2018-07-12T08:30:56.355Z,27.40
2018-07-12T08:33:25.685Z,27.50
2018-07-12T08:35:54.463Z,27.80
2018-07-12T08:38:23.188Z,27.40
2018-07-12T08:40:52.764Z,26.70
2018-07-12T08:43:21.418Z,26.60
2018-07-12T08:45:50.888Z,26.50
2018-07-12T08:48:19.785Z,26.40
2018-07-12T08:50:48.393Z,26.30
2018-07-12T08:53:17.128Z,26.60
2018-07-12T08:55:45.881Z,27.50
2018-07-12T08:58:14.589Z,27.90
2018-07-12T09:00:43.386Z,28.10
2018-07-12T09:03:12.228Z,28.30
2018-07-12T09:05:41.053Z,28.70
2018-07-12T09:08:09.864Z,29.30
2018-07-12T09:10:38.566Z,28.50
2018-07-12T09:13:07.146Z,28.60
2018-07-12T09:15:36.360Z,28.90
2018-07-12T09:18:05.066Z,29.50
2018-07-12T09:20:33.698Z,30.00
2018-07-12T09:23:02.397Z,30.00
2018-07-12T09:25:30.980Z,29.70
2018-07-12T09:28:01.223Z,29.30
2018-07-12T09:30:35.493Z,29.40
2018-07-12T09:33:05.566Z,29.50
2018-07-12T09:35:35.346Z,29.30
2018-07-12T09:38:05.176Z,29.20
2018-07-12T09:40:34.037Z,29.70
2018-07-12T09:43:03.759Z,29.80
2018-07-12T09:45:32.370Z,29.80
2018-07-12T09:48:00.951Z,29.60
2018-07-12T09:50:29.555Z,30.10
2018-07-12T09:52:58.201Z,30.50
2018-07-12T09:55:32.349Z,30.00
2018-07-12T09:58:17.900Z,29.90
2018-07-12T10:00:53.813Z,30.00
2018-07-12T10:03:22.444Z,30.40
2018-07-12T10:05:56.527Z,30.20
2018-07-12T10:08:30.764Z,30.10
2018-07-12T10:11:05.064Z,30.20
2018-07-12T10:16:13.328Z,30.00
2018-07-12T10:18:47.901Z,30.00
2018-07-12T10:21:16.580Z,30.50
2018-07-12T10:23:45.927Z,31.10
2018-07-12T10:26:14.622Z,31.40
2018-07-12T10:28:43.998Z,31.00
2018-07-12T10:31:12.707Z,31.10
2018-07-12T10:33:41.372Z,31.50
2018-07-12T10:36:10.112Z,31.00
2018-07-12T10:38:39.597Z,31.50
2018-07-12T10:41:09.924Z,31.60
2018-07-12T10:43:38.561Z,31.80
2018-07-12T10:46:07.164Z,32.00
2018-07-12T10:48:35.782Z,32.00
2018-07-12T10:51:04.453Z,31.80
2018-07-12T10:53:33.164Z,31.40
2018-07-12T10:56:01.723Z,30.60
2018-07-12T10:58:30.335Z,30.80
2018-07-12T11:00:58.950Z,31.20
2018-07-12T11:03:27.601Z,31.20
2018-07-12T11:05:56.250Z,31.90
2018-07-12T11:08:24.818Z,33.00
2018-07-12T11:10:53.506Z,32.80
2018-07-12T11:13:39.108Z,33.20
2018-07-12T11:16:07.744Z,32.80
2018-07-12T11:18:36.350Z,32.10
2018-07-12T11:21:06.612Z,31.90
2018-07-12T11:23:41.183Z,31.60
2018-07-12T11:26:09.813Z,32.00
2018-07-12T11:28:38.435Z,33.30
2018-07-12T11:31:07.448Z,33.60
2018-07-12T11:33:41.415Z,33.00
2018-07-12T11:36:10.305Z,31.90
2018-07-12T11:38:39.986Z,30.90
2018-07-12T11:41:09.328Z,30.90
2018-07-12T11:43:38.036Z,30.80
2018-07-12T11:46:07.976Z,31.30
2018-07-12T11:48:39.096Z,31.00
2018-07-12T11:51:08.390Z,30.50
2018-07-12T11:56:05.575Z,31.80
2018-07-12T11:58:34.306Z,32.00
2018-07-12T12:01:02.937Z,32.10
2018-07-12T12:03:31.868Z,31.30
2018-07-12T12:06:00.716Z,31.70
2018-07-12T12:08:29.350Z,32.90
2018-07-12T12:10:58.079Z,33.60
2018-07-12T12:13:26.796Z,34.50
2018-07-12T12:15:55.464Z,34.60
2018-07-12T12:18:24.112Z,34.10
2018-07-12T12:20:52.855Z,33.90
2018-07-12T12:23:22.510Z,33.40
2018-07-12T12:25:51.283Z,34.30
2018-07-12T12:28:20.024Z,35.40
2018-07-12T12:30:49.150Z,35.40
2018-07-12T12:33:17.948Z,35.50
2018-07-12T12:35:46.532Z,34.80
2018-07-12T12:38:16.715Z,34.80
2018-07-12T12:40:46.431Z,33.40
2018-07-12T12:43:15.026Z,32.70
2018-07-12T12:45:43.601Z,33.40
2018-07-12T12:48:12.249Z,34.10
2018-07-12T12:50:40.981Z,34.20
2018-07-12T12:53:09.932Z,33.50
2018-07-12T12:55:39.369Z,33.00
2018-07-12T12:58:07.974Z,33.80
2018-07-12T13:00:36.686Z,33.90
2018-07-12T13:03:05.344Z,33.10
2018-07-12T13:05:33.995Z,33.00
2018-07-12T13:08:02.737Z,32.90
2018-07-12T13:10:31.429Z,32.90
2018-07-12T13:13:00.159Z,33.30
2018-07-12T13:15:29.571Z,34.00
2018-07-12T13:17:58.326Z,34.80
2018-07-12T13:20:26.956Z,34.70
2018-07-12T13:22:55.604Z,34.60
2018-07-12T13:25:24.302Z,34.00
2018-07-12T13:28:04.205Z,32.20
2018-07-12T13:30:32.998Z,31.50
2018-07-12T13:33:01.734Z,32.50
2018-07-12T13:35:30.441Z,32.70
2018-07-12T13:37:59.501Z,32.10
2018-07-12T13:40:28.069Z,31.50
2018-07-12T13:45:25.572Z,30.50
2018-07-12T13:47:54.218Z,30.70
2018-07-12T13:50:22.814Z,31.10
2018-07-12T13:55:19.832Z,30.70
2018-07-12T13:57:48.531Z,30.40
2018-07-12T14:00:17.256Z,30.20
2018-07-12T14:02:45.831Z,30.40
2018-07-12T14:05:14.423Z,30.60
2018-07-12T14:07:43.748Z,30.50
2018-07-12T14:10:12.374Z,30.40
2018-07-12T14:12:41.006Z,30.30
2018-07-12T14:15:09.594Z,30.10
2018-07-12T14:17:38.184Z,30.10
2018-07-12T14:20:06.994Z,29.90
2018-07-12T14:22:35.623Z,29.80
2018-07-12T14:25:05.296Z,30.50
2018-07-12T14:27:34.003Z,31.60
2018-07-12T14:30:02.936Z,32.20
2018-07-12T14:32:31.526Z,32.10
2018-07-12T14:35:00.296Z,32.40
2018-07-12T14:37:29.051Z,32.40
2018-07-12T14:39:57.695Z,31.80
2018-07-12T14:42:26.274Z,31.50
2018-07-12T14:45:00.450Z,31.50
2018-07-12T14:49:57.626Z,32.70
2018-07-12T14:52:26.223Z,33.40
2018-07-12T14:54:54.909Z,33.70
2018-07-12T14:57:24.649Z,33.70
2018-07-12T14:59:53.829Z,33.70
2018-07-12T15:02:22.602Z,33.50
2018-07-12T15:04:51.365Z,34.50
2018-07-12T15:07:20.258Z,34.70
2018-07-12T15:09:48.963Z,34.70
2018-07-12T15:12:17.686Z,34.70
2018-07-12T15:14:46.284Z,34.50
2018-07-12T15:17:15.049Z,34.50
2018-07-12T15:19:43.629Z,34.40
2018-07-12T15:22:12.371Z,33.50
2018-07-12T15:24:40.944Z,32.80
2018-07-12T15:27:09.544Z,32.80
2018-07-12T15:29:38.237Z,32.30
2018-07-12T15:32:06.818Z,32.00
2018-07-12T15:34:35.386Z,32.10
2018-07-12T15:37:04.197Z,32.30
2018-07-12T15:39:32.759Z,32.20
2018-07-12T15:42:02.402Z,32.10
2018-07-12T15:44:36.646Z,31.50
2018-07-12T15:47:10.687Z,31.50
2018-07-12T15:49:39.353Z,31.40
2018-07-12T15:52:07.993Z,32.00
2018-07-12T15:54:36.568Z,32.30
2018-07-12T15:57:05.350Z,31.90
2018-07-12T15:59:33.940Z,31.30
2018-07-12T16:02:02.590Z,31.20
2018-07-12T16:04:31.129Z,31.40
2018-07-12T16:07:05.363Z,31.70
2018-07-12T16:09:33.945Z,31.70
2018-07-12T16:12:02.523Z,32.00
2018-07-12T16:14:31.448Z,32.10
2018-07-12T16:19:28.468Z,32.20
2018-07-12T16:21:57.088Z,32.30
2018-07-12T16:24:25.638Z,32.30
2018-07-12T16:26:54.294Z,31.80
2018-07-12T16:29:22.896Z,31.80
2018-07-12T16:31:55.561Z,31.30
2018-07-12T16:34:24.159Z,31.20
2018-07-12T16:36:53.134Z,31.20
2018-07-12T16:39:27.301Z,31.10
2018-07-12T16:41:56.014Z,31.00
2018-07-12T16:44:24.596Z,30.80
2018-07-12T16:46:53.155Z,30.60
2018-07-12T16:49:21.838Z,30.60
2018-07-12T16:51:50.419Z,30.50
2018-07-12T16:54:19.125Z,30.60
2018-07-12T16:56:47.801Z,30.50
2018-07-12T16:59:16.502Z,30.50
2018-07-12T17:01:45.117Z,30.30
2018-07-12T17:04:13.703Z,30.30
2018-07-12T17:06:42.283Z,30.40
2018-07-12T17:09:10.861Z,30.20
2018-07-12T17:11:39.514Z,29.90
2018-07-12T17:14:08.233Z,29.50
2018-07-12T17:16:36.736Z,29.20
2018-07-12T17:19:05.416Z,28.80
2018-07-12T17:21:34.007Z,28.50
2018-07-12T17:24:02.676Z,28.40
2018-07-12T17:29:05.542Z,28.20
2018-07-12T17:31:35.121Z,28.10
2018-07-12T17:34:04.433Z,28.00
2018-07-12T17:36:33.040Z,28.00
2018-07-12T17:39:01.621Z,28.00
2018-07-12T17:41:31.136Z,27.90
2018-07-12T17:43:59.745Z,27.80
2018-07-12T17:46:28.329Z,27.70
2018-07-12T17:48:56.953Z,27.60
2018-07-12T17:51:26.285Z,27.50
2018-07-12T17:53:54.877Z,27.40
2018-07-12T17:56:29.147Z,27.30
2018-07-12T17:58:57.772Z,27.20
2018-07-12T18:01:26.455Z,27.10
2018-07-12T18:03:55.069Z,27.00
2018-07-12T18:06:23.684Z,26.90
2018-07-12T18:08:52.476Z,26.90
2018-07-12T18:11:21.174Z,26.80
2018-07-12T18:13:49.874Z,26.70
2018-07-12T18:16:18.463Z,26.70
2018-07-12T18:18:48.121Z,26.60
2018-07-12T18:21:16.789Z,26.60
2018-07-12T18:23:45.416Z,26.60
2018-07-12T18:26:19.524Z,26.50
2018-07-12T18:28:48.265Z,26.40
2018-07-12T18:31:16.936Z,26.30
2018-07-12T18:33:45.494Z,26.30
2018-07-12T18:36:14.076Z,26.20
2018-07-12T18:38:43.401Z,26.20
2018-07-12T18:41:13.216Z,26.20
2018-07-12T18:43:42.043Z,26.30
2018-07-12T18:46:10.649Z,26.20
2018-07-12T18:48:39.301Z,26.20
2018-07-12T18:51:08.439Z,26.20
2018-07-12T18:53:37.091Z,26.10
2018-07-12T18:56:06.223Z,26.00
2018-07-12T18:58:34.797Z,25.90
2018-07-12T19:01:09.917Z,25.80
2018-07-12T19:03:44.231Z,25.70
2018-07-12T19:06:13.504Z,25.60
2018-07-12T19:08:42.356Z,25.40
2018-07-12T19:11:16.479Z,25.30
2018-07-12T19:13:46.281Z,25.30
2018-07-12T19:16:14.892Z,25.10
2018-07-12T19:18:43.535Z,25.00
2018-07-12T19:21:12.101Z,25.00
2018-07-12T19:23:40.770Z,25.00
2018-07-12T19:26:09.386Z,25.00
2018-07-12T19:28:37.986Z,25.00
2018-07-12T19:31:06.604Z,25.00
2018-07-12T19:33:35.369Z,24.90
2018-07-12T19:36:04.169Z,24.90
2018-07-12T19:38:33.382Z,24.60
2018-07-12T19:41:02.297Z,24.30
2018-07-12T19:43:30.978Z,24.10
2018-07-12T19:45:59.701Z,23.90
2018-07-12T19:48:28.371Z,23.80
2018-07-12T19:50:57.067Z,23.70
2018-07-12T19:55:54.141Z,23.60
2018-07-12T19:58:22.825Z,23.50
2018-07-12T20:03:19.909Z,23.80
2018-07-12T20:05:48.604Z,23.70
2018-07-12T20:08:17.266Z,23.70
2018-07-12T20:10:46.850Z,23.80
2018-07-12T20:13:15.396Z,23.70
2018-07-12T20:15:44.111Z,23.60
2018-07-12T20:18:12.689Z,23.40
2018-07-12T20:20:42.241Z,23.10
2018-07-12T20:23:11.078Z,23.00
2018-07-12T20:25:39.686Z,22.80
2018-07-12T20:28:08.636Z,22.80
2018-07-12T20:30:37.208Z,22.80
2018-07-12T20:33:05.824Z,22.70
2018-07-12T20:35:34.485Z,22.50
2018-07-12T20:38:03.212Z,22.40
2018-07-12T20:40:31.843Z,22.30
2018-07-12T20:43:00.533Z,22.20
2018-07-12T20:45:29.317Z,22.10
2018-07-12T20:47:57.989Z,22.00
2018-07-12T20:50:26.628Z,21.90
2018-07-12T20:52:55.293Z,21.80
2018-07-12T20:55:23.916Z,21.70
2018-07-12T20:57:52.679Z,21.70
2018-07-12T21:00:21.346Z,21.60
2018-07-12T21:02:50.032Z,21.60
2018-07-12T21:05:18.684Z,21.60
2018-07-12T21:07:47.313Z,21.50
2018-07-12T21:10:15.943Z,21.50
2018-07-12T21:12:50.282Z,21.40
2018-07-12T21:15:18.945Z,21.40
2018-07-12T21:17:47.597Z,21.40
2018-07-12T21:20:16.144Z,21.40
2018-07-12T21:22:44.716Z,21.40
2018-07-12T21:25:13.299Z,21.30
2018-07-12T21:27:41.867Z,21.30
2018-07-12T21:30:11.404Z,21.30
2018-07-12T21:32:40.004Z,21.30
2018-07-12T21:35:08.651Z,21.30
2018-07-12T21:37:42.891Z,21.20
2018-07-12T21:40:12.114Z,21.20
2018-07-12T21:42:40.705Z,21.10
2018-07-12T21:45:09.292Z,21.00
2018-07-12T21:47:37.862Z,20.90
2018-07-12T21:50:06.554Z,20.80
2018-07-12T21:52:35.101Z,20.70
2018-07-12T21:55:03.764Z,20.60
2018-07-12T21:57:32.301Z,20.60
2018-07-12T22:00:00.852Z,20.50
2018-07-12T22:02:29.486Z,20.50
2018-07-12T22:04:58.186Z,20.40
2018-07-12T22:07:42.703Z,20.30
2018-07-12T22:10:11.479Z,20.30
2018-07-12T22:12:40.216Z,20.30
2018-07-12T22:15:08.944Z,20.30
2018-07-12T22:17:38.122Z,20.00
2018-07-12T22:20:07.344Z,19.80
2018-07-12T22:22:36.584Z,19.70
2018-07-12T22:25:05.894Z,19.50
2018-07-12T22:27:35.776Z,19.50
2018-07-12T22:35:34.331Z,19.50
2018-07-12T22:47:02.943Z,19.50
2018-07-12T22:55:37.407Z,19.40
2018-07-12T23:07:20.098Z,19.20
2018-07-12T23:18:49.555Z,18.90
2018-07-12T23:36:20.583Z,18.80
